Kliftrans — PCDB — position and weather

sailwx.info

Track history (hours):
 
Tides and Currents Weather Stations Pressure Air Temp Water Temp Dewpoint Dewpoint Depression Visibility Wind Speed Wind Dir Waves Ship Positions

Kliftrans

Last reported at 2016-Aug-25 14:32 UTC. Time now 2016-Aug-27 20:36 UTC.
Position N 38°60' W 009°50'.

Length 32 m; draft 6.4 m.

Type: Tug. MMSI: 244890607.

Date/timePositionNaut miles runAvg speedWind from/ knotsBaromVisibWave heightAir tempDewpointWater temp
2016-Aug-25 14:32N 38°60' W 009°50'5 5.5
2016-Aug-25 13:33N 38°55' W 009°50'5 5.4
2016-Aug-25 12:33N 38°49' W 009°50'6 5.5
2016-Aug-25 11:33N 38°44' W 009°50'6 5.8
2016-Aug-25 10:33N 38°38' W 009°48'6 5.9
2016-Aug-25 09:33N 38°32' W 009°47'6 5.8
2016-Aug-25 08:33N 38°26' W 009°45'50 5.0
2016-Aug-24 22:33N 37°38' W 009°32'5 4.6
2016-Aug-24 21:33N 37°34' W 009°30'5 5.4
2016-Aug-24 20:33N 37°29' W 009°28'6 5.5
2016-Aug-24 19:30N 37°23' W 009°26'5 5.4
2016-Aug-24 18:33N 37°18' W 009°25'5 5.3
2016-Aug-24 17:33N 37°13' W 009°24'6 5.7
2016-Aug-24 16:33N 37°07' W 009°22'6 5.8
2016-Aug-24 15:32N 37°01' W 009°20'6 5.8
2016-Aug-24 14:32N 36°56' W 009°19'  
2016-Aug-20 11:33N 39°24' E 001°28'6 6.3
2016-Aug-20 10:33N 39°28' E 001°34'6 6.1
2016-Aug-20 09:30N 39°33' E 001°39'18 6.0
2016-Aug-20 06:32N 39°46' E 001°55'6 5.9
2016-Aug-20 05:33N 39°50' E 002°00'6 5.8
2016-Aug-20 04:33N 39°54' E 002°06'6 6.1
2016-Aug-20 03:33N 39°58' E 002°12'6 6.0
2016-Aug-20 02:33N 40°03' E 002°17'6 6.3
2016-Aug-20 01:33N 40°07' E 002°23'6 6.4
2016-Aug-20 00:33N 40°12' E 002°28'7 6.6
2016-Aug-19 23:33N 40°17' E 002°34'7 6.5
2016-Aug-19 22:33N 40°22' E 002°40'7 6.7
2016-Aug-19 21:33N 40°26' E 002°46'7 6.8
2016-Aug-19 20:33N 40°31' E 002°53'7 6.6
2016-Aug-19 19:33N 40°36' E 002°59'6 6.0
2016-Aug-19 18:33N 40°40' E 003°04'6 6.2
2016-Aug-19 17:33N 40°45' E 003°10'9 6.4
2016-Aug-19 16:10N 40°51' E 003°18'4 6.2
2016-Aug-19 15:32N 40°54' E 003°21'154 6.4
2016-Aug-18 15:15N 42°48' E 005°41'21 5.0
2016-Aug-18 11:05N 43°06' E 005°55'1 1.8
2016-Aug-18 10:34N 43°06' E 005°53'0 0.0
2016-Aug-18 09:34N 43°06' E 005°53'0 0.0
2016-Aug-18 08:34N 43°06' E 005°53'0 0.0
2016-Aug-18 07:34N 43°06' E 005°53'0 0.0
2016-Aug-18 06:34N 43°06' E 005°53'0 0.0
2016-Aug-18 05:34N 43°06' E 005°53'0 0.0
2016-Aug-18 04:31N 43°06' E 005°53'0 0.0
2016-Aug-18 03:31N 43°06' E 005°53'0 0.0
2016-Aug-18 02:31N 43°06' E 005°53'0 0.0
2016-Aug-18 01:28N 43°06' E 005°53'0 0.0
2016-Aug-18 00:31N 43°06' E 005°53'0 0.0
2016-Aug-17 23:31N 43°06' E 005°53'0 0.0
2016-Aug-17 22:31N 43°06' E 005°53'0 0.0
2016-Aug-17 21:31N 43°06' E 005°53'0 0.0
2016-Aug-17 20:31N 43°06' E 005°53'0 0.0
2016-Aug-17 19:31N 43°06' E 005°53'0 0.0
2016-Aug-17 18:31N 43°06' E 005°53'0 0.0
2016-Aug-17 17:31N 43°06' E 005°53'0 0.0
2016-Aug-17 16:31N 43°06' E 005°53'0 0.0
2016-Aug-17 15:31N 43°06' E 005°53'0 0.0
2016-Aug-17 14:31N 43°06' E 005°53'0 0.0
2016-Aug-17 13:31N 43°06' E 005°53'0 0.0
2016-Aug-17 12:31N 43°06' E 005°53'0 0.0
2016-Aug-17 11:33N 43°06' E 005°53'0 0.0
2016-Aug-17 10:33N 43°06' E 005°53'0 0.0
2016-Aug-17 08:33N 43°06' E 005°53'0 0.0
2016-Aug-17 07:30N 43°06' E 005°53'0 0.0
2016-Aug-17 06:33N 43°06' E 005°53'0 0.0
2016-Aug-17 05:33N 43°06' E 005°53'0 0.0
2016-Aug-17 04:30N 43°06' E 005°53'0 0.0
2016-Aug-17 03:33N 43°06' E 005°53'0 0.0
2016-Aug-17 02:33N 43°06' E 005°53'0 0.0
2016-Aug-17 01:33N 43°06' E 005°53'0 0.0
2016-Aug-17 00:33N 43°06' E 005°53'0 0.0
2016-Aug-16 23:33N 43°06' E 005°53'0 0.0
2016-Aug-16 22:33N 43°06' E 005°53'0 0.0
2016-Aug-16 21:33N 43°06' E 005°53'0 0.1
2016-Aug-16 20:33N 43°06' E 005°53'0 0.0
2016-Aug-16 19:33N 43°06' E 005°53'0 0.0
2016-Aug-16 18:33N 43°06' E 005°53'0 0.0
2016-Aug-16 17:33N 43°06' E 005°53'0 0.0
2016-Aug-16 16:33N 43°06' E 005°53'0 0.0
2016-Aug-16 15:33N 43°06' E 005°53'0 0.0
2016-Aug-16 14:33N 43°06' E 005°53'0 0.0
2016-Aug-16 13:30N 43°06' E 005°53'0 0.0
2016-Aug-16 12:30N 43°06' E 005°53'0 0.0
2016-Aug-16 11:33N 43°06' E 005°53'0 0.0
2016-Aug-16 10:33N 43°06' E 005°53'0 0.0
2016-Aug-16 09:33N 43°06' E 005°53'0 0.0
2016-Aug-16 08:33N 43°06' E 005°53'0 0.1
2016-Aug-16 07:33N 43°06' E 005°53'0 0.1
2016-Aug-16 04:31N 43°06' E 005°54'0 0.0
2016-Aug-16 03:31N 43°06' E 005°54'0 0.0
2016-Aug-16 02:31N 43°06' E 005°54'0 0.0
2016-Aug-16 01:31N 43°06' E 005°54'0 0.0
2016-Aug-16 00:31N 43°06' E 005°54'0 0.0
2016-Aug-15 23:31N 43°06' E 005°54'0 0.0
2016-Aug-15 22:31N 43°06' E 005°54'0 0.0
2016-Aug-15 21:31N 43°06' E 005°54'0 0.0
2016-Aug-15 20:31N 43°06' E 005°54'0 0.0
2016-Aug-15 19:31N 43°06' E 005°54'0 0.0
2016-Aug-15 18:31N 43°06' E 005°54'0 0.0
2016-Aug-15 17:31N 43°06' E 005°54'0 0.0
2016-Aug-15 16:31N 43°06' E 005°54'0 0.0
2016-Aug-15 15:31N 43°06' E 005°54'  
Track history (hours):
 
Tides and Currents Weather Stations Pressure Air Temp Water Temp Dewpoint Dewpoint Depression Visibility Wind Speed Wind Dir Waves Ship Positions

Kliftrans

Last reported at 2016-Aug-25 14:32 UTC. Time now 2016-Aug-27 20:36 UTC.
Position N 38°60' W 009°50'.

Length 32 m; draft 6.4 m.

Type: Tug. MMSI: 244890607.

Date/timePositionNaut miles runAvg speedWind from/ knotsBaromVisibWave heightAir tempDewpointWater temp
2016-Aug-25 14:32N 38°60' W 009°50'5 5.5
2016-Aug-25 13:33N 38°55' W 009°50'5 5.4
2016-Aug-25 12:33N 38°49' W 009°50'6 5.5
2016-Aug-25 11:33N 38°44' W 009°50'6 5.8
2016-Aug-25 10:33N 38°38' W 009°48'6 5.9
2016-Aug-25 09:33N 38°32' W 009°47'6 5.8
2016-Aug-25 08:33N 38°26' W 009°45'50 5.0
2016-Aug-24 22:33N 37°38' W 009°32'5 4.6
2016-Aug-24 21:33N 37°34' W 009°30'5 5.4
2016-Aug-24 20:33N 37°29' W 009°28'6 5.5
2016-Aug-24 19:30N 37°23' W 009°26'5 5.4
2016-Aug-24 18:33N 37°18' W 009°25'5 5.3
2016-Aug-24 17:33N 37°13' W 009°24'6 5.7
2016-Aug-24 16:33N 37°07' W 009°22'6 5.8
2016-Aug-24 15:32N 37°01' W 009°20'6 5.8
2016-Aug-24 14:32N 36°56' W 009°19'  
2016-Aug-20 11:33N 39°24' E 001°28'6 6.3
2016-Aug-20 10:33N 39°28' E 001°34'6 6.1
2016-Aug-20 09:30N 39°33' E 001°39'18 6.0
2016-Aug-20 06:32N 39°46' E 001°55'6 5.9
2016-Aug-20 05:33N 39°50' E 002°00'6 5.8
2016-Aug-20 04:33N 39°54' E 002°06'6 6.1
2016-Aug-20 03:33N 39°58' E 002°12'6 6.0
2016-Aug-20 02:33N 40°03' E 002°17'6 6.3
2016-Aug-20 01:33N 40°07' E 002°23'6 6.4
2016-Aug-20 00:33N 40°12' E 002°28'7 6.6
2016-Aug-19 23:33N 40°17' E 002°34'7 6.5
2016-Aug-19 22:33N 40°22' E 002°40'7 6.7
2016-Aug-19 21:33N 40°26' E 002°46'7 6.8
2016-Aug-19 20:33N 40°31' E 002°53'7 6.6
2016-Aug-19 19:33N 40°36' E 002°59'6 6.0
2016-Aug-19 18:33N 40°40' E 003°04'6 6.2
2016-Aug-19 17:33N 40°45' E 003°10'9 6.4
2016-Aug-19 16:10N 40°51' E 003°18'4 6.2
2016-Aug-19 15:32N 40°54' E 003°21'154 6.4
2016-Aug-18 15:15N 42°48' E 005°41'21 5.0
2016-Aug-18 11:05N 43°06' E 005°55'1 1.8
2016-Aug-18 10:34N 43°06' E 005°53'0 0.0
2016-Aug-18 09:34N 43°06' E 005°53'0 0.0
2016-Aug-18 08:34N 43°06' E 005°53'0 0.0
2016-Aug-18 07:34N 43°06' E 005°53'0 0.0
2016-Aug-18 06:34N 43°06' E 005°53'0 0.0
2016-Aug-18 05:34N 43°06' E 005°53'0 0.0
2016-Aug-18 04:31N 43°06' E 005°53'0 0.0
2016-Aug-18 03:31N 43°06' E 005°53'0 0.0
2016-Aug-18 02:31N 43°06' E 005°53'0 0.0
2016-Aug-18 01:28N 43°06' E 005°53'0 0.0
2016-Aug-18 00:31N 43°06' E 005°53'0 0.0
2016-Aug-17 23:31N 43°06' E 005°53'0 0.0
2016-Aug-17 22:31N 43°06' E 005°53'0 0.0
2016-Aug-17 21:31N 43°06' E 005°53'0 0.0
2016-Aug-17 20:31N 43°06' E 005°53'0 0.0
2016-Aug-17 19:31N 43°06' E 005°53'0 0.0
2016-Aug-17 18:31N 43°06' E 005°53'0 0.0
2016-Aug-17 17:31N 43°06' E 005°53'0 0.0
2016-Aug-17 16:31N 43°06' E 005°53'0 0.0
2016-Aug-17 15:31N 43°06' E 005°53'0 0.0
2016-Aug-17 14:31N 43°06' E 005°53'0 0.0
2016-Aug-17 13:31N 43°06' E 005°53'0 0.0
2016-Aug-17 12:31N 43°06' E 005°53'0 0.0
2016-Aug-17 11:33N 43°06' E 005°53'0 0.0
2016-Aug-17 10:33N 43°06' E 005°53'0 0.0
2016-Aug-17 08:33N 43°06' E 005°53'0 0.0
2016-Aug-17 07:30N 43°06' E 005°53'0 0.0
2016-Aug-17 06:33N 43°06' E 005°53'0 0.0
2016-Aug-17 05:33N 43°06' E 005°53'0 0.0
2016-Aug-17 04:30N 43°06' E 005°53'0 0.0
2016-Aug-17 03:33N 43°06' E 005°53'0 0.0
2016-Aug-17 02:33N 43°06' E 005°53'0 0.0
2016-Aug-17 01:33N 43°06' E 005°53'0 0.0
2016-Aug-17 00:33N 43°06' E 005°53'0 0.0
2016-Aug-16 23:33N 43°06' E 005°53'0 0.0
2016-Aug-16 22:33N 43°06' E 005°53'0 0.0
2016-Aug-16 21:33N 43°06' E 005°53'0 0.1
2016-Aug-16 20:33N 43°06' E 005°53'0 0.0
2016-Aug-16 19:33N 43°06' E 005°53'0 0.0
2016-Aug-16 18:33N 43°06' E 005°53'0 0.0
2016-Aug-16 17:33N 43°06' E 005°53'0 0.0
2016-Aug-16 16:33N 43°06' E 005°53'0 0.0
2016-Aug-16 15:33N 43°06' E 005°53'0 0.0
2016-Aug-16 14:33N 43°06' E 005°53'0 0.0
2016-Aug-16 13:30N 43°06' E 005°53'0 0.0
2016-Aug-16 12:30N 43°06' E 005°53'0 0.0
2016-Aug-16 11:33N 43°06' E 005°53'0 0.0
2016-Aug-16 10:33N 43°06' E 005°53'0 0.0
2016-Aug-16 09:33N 43°06' E 005°53'0 0.0
2016-Aug-16 08:33N 43°06' E 005°53'0 0.1
2016-Aug-16 07:33N 43°06' E 005°53'0 0.1
2016-Aug-16 04:31N 43°06' E 005°54'0 0.0
2016-Aug-16 03:31N 43°06' E 005°54'0 0.0
2016-Aug-16 02:31N 43°06' E 005°54'0 0.0
2016-Aug-16 01:31N 43°06' E 005°54'0 0.0
2016-Aug-16 00:31N 43°06' E 005°54'0 0.0
2016-Aug-15 23:31N 43°06' E 005°54'0 0.0
2016-Aug-15 22:31N 43°06' E 005°54'0 0.0
2016-Aug-15 21:31N 43°06' E 005°54'0 0.0
2016-Aug-15 20:31N 43°06' E 005°54'0 0.0
2016-Aug-15 19:31N 43°06' E 005°54'0 0.0
2016-Aug-15 18:31N 43°06' E 005°54'0 0.0
2016-Aug-15 17:31N 43°06' E 005°54'0 0.0
2016-Aug-15 16:31N 43°06' E 005°54'0 0.0
2016-Aug-15 15:31N 43°06' E 005°54'  

Dump ship's entire track history